Time;durP1;ratioP1;P1;durP2;ratioP2;P2;SDS_P1;SDS_P2;PMS_P1;PMS_P2;Temp;Humidity;BMP_temperature;BMP_pressure;BME280_temperature;BME280_humidity;BME280_pressure;Samples;Min_cycle;Max_cycle;Signal;HPM_P1;HPM_P2
2022/07/10 00:00:14;;;;;;;30.20;20.43;;;;;;;35.70;47.49;101390.75;6249970;22;20473;-73
2022/07/10 00:02:42;;;;;;;42.73;23.00;;;;;;;35.71;47.42;101392.38;6250246;22;20464;-72
2022/07/10 00:05:10;;;;;;;37.47;22.30;;;;;;;35.79;47.15;101383.72;6250091;22;20374;-72
2022/07/10 00:07:36;;;;;;;47.00;25.43;;;;;;;35.73;47.57;101387.53;6249526;22;20428;-74
2022/07/10 00:10:04;;;;;;;48.50;24.60;;;;;;;35.69;47.27;101383.75;6248744;22;20822;-74
2022/07/10 00:12:30;;;;;;;53.77;29.00;;;;;;;35.67;47.66;101374.34;6249283;22;20864;-74
2022/07/10 00:14:56;;;;;;;53.07;24.20;;;;;;;35.69;47.62;101372.16;6249890;22;20373;-74
2022/07/10 00:17:22;;;;;;;36.00;19.53;;;;;;;35.67;47.70;101364.34;6249806;22;20751;-74
2022/07/10 00:19:48;;;;;;;50.83;22.57;;;;;;;35.75;47.64;101371.03;6249868;22;20373;-74
2022/07/10 00:22:14;;;;;;;48.60;24.67;;;;;;;35.68;47.69;101360.56;6249725;22;20402;-74
2022/07/10 00:24:40;;;;;;;42.23;19.83;;;;;;;35.72;47.13;101364.28;6249845;22;20374;-74
2022/07/10 00:27:07;;;;;;;57.80;27.10;;;;;;;35.76;47.51;101359.16;6249813;22;20483;-74
2022/07/10 00:29:33;;;;;;;40.83;24.93;;;;;;;35.74;47.58;101364.84;6249437;22;20437;-74
2022/07/10 00:31:59;;;;;;;48.37;25.77;;;;;;;35.84;47.33;101357.75;6249963;22;20386;-74
2022/07/10 00:34:25;;;;;;;53.07;26.87;;;;;;;35.87;47.40;101358.00;6249650;22;20435;-76
2022/07/10 00:36:51;;;;;;;46.37;25.27;;;;;;;35.79;47.44;101355.91;6250395;22;20381;-76
2022/07/10 00:39:18;;;;;;;60.17;28.00;;;;;;;35.83;47.42;101351.56;6249720;22;20385;-74
2022/07/10 00:41:44;;;;;;;45.23;23.43;;;;;;;35.92;47.23;101341.00;6250006;22;20706;-74
2022/07/10 00:44:10;;;;;;;52.60;23.30;;;;;;;36.03;47.00;101343.38;6277450;22;20353;-73
2022/07/10 00:46:36;;;;;;;41.20;22.73;;;;;;;36.01;46.97;101332.03;6249515;22;20413;-73
2022/07/10 00:49:02;;;;;;;35.43;21.27;;;;;;;36.00;47.37;101333.09;6249697;22;20511;-74
2022/07/10 00:51:30;;;;;;;53.50;25.53;;;;;;;35.91;47.00;101337.50;6277259;22;20353;-74
2022/07/10 00:53:57;;;;;;;42.53;25.20;;;;;;;35.75;47.62;101331.38;6276930;22;20447;-74
2022/07/10 00:56:25;;;;;;;51.80;23.97;;;;;;;35.63;47.53;101322.00;6249678;22;20381;-74
2022/07/10 00:58:52;;;;;;;39.70;22.27;;;;;;;35.76;47.53;101324.06;6249474;22;20378;-74
2022/07/10 01:01:18;;;;;;;44.87;22.27;;;;;;;35.78;47.74;101330.78;6250024;22;20392;-73
2022/07/10 01:03:45;;;;;;;45.43;20.70;;;;;;;35.85;47.11;101321.56;6249676;22;20404;-74
2022/07/10 01:06:12;;;;;;;38.23;19.40;;;;;;;35.91;47.12;101310.50;6249221;22;20763;-74
2022/07/10 01:08:39;;;;;;;55.27;22.80;;;;;;;35.94;46.47;101317.22;6249717;22;20378;-74
2022/07/10 01:11:05;;;;;;;44.17;26.67;;;;;;;35.82;47.16;101322.94;6249328;22;20405;-74
2022/07/10 01:13:32;;;;;;;47.90;24.40;;;;;;;35.85;47.47;101317.00;6249578;22;20373;-74
2022/07/10 01:15:58;;;;;;;45.37;23.63;;;;;;;35.90;46.72;101314.25;6249305;22;20381;-74
2022/07/10 01:18:28;;;;;;;40.13;21.90;;;;;;;35.87;46.87;101309.41;6249329;22;20687;-74
2022/07/10 01:20:55;;;;;;;41.50;23.33;;;;;;;35.78;47.54;101317.28;6249471;22;20377;-74
2022/07/10 01:23:22;;;;;;;41.97;20.77;;;;;;;35.76;47.13;101310.56;6249212;22;20405;-74
2022/07/10 01:25:49;;;;;;;44.63;25.77;;;;;;;35.77;46.97;101304.09;6276946;22;20725;-74
2022/07/10 01:28:17;;;;;;;42.13;26.37;;;;;;;35.82;47.06;101297.84;6248905;22;20897;-74
2022/07/10 01:30:43;;;;;;;33.60;21.40;;;;;;;35.53;47.77;101296.66;6276104;22;20425;-74
2022/07/10 01:33:10;;;;;;;45.30;24.60;;;;;;;35.72;47.05;101285.22;6276845;22;20350;-73
2022/07/10 01:35:36;;;;;;;49.00;25.63;;;;;;;35.62;47.30;101280.72;6249201;22;20381;-74
2022/07/10 01:38:02;;;;;;;38.47;21.97;;;;;;;35.41;47.63;101274.59;6249111;22;20402;-74
2022/07/10 01:40:28;;;;;;;48.00;22.53;;;;;;;35.45;47.25;101273.00;6249149;22;20477;-74
2022/07/10 01:42:55;;;;;;;36.53;22.53;;;;;;;35.57;46.96;101269.16;6276847;22;20354;-74
2022/07/10 01:45:21;;;;;;;41.47;21.57;;;;;;;35.55;47.43;101265.94;6248923;22;20381;-73
2022/07/10 01:47:47;;;;;;;40.00;22.23;;;;;;;35.61;46.98;101271.00;6248789;22;20498;-74
2022/07/10 01:50:13;;;;;;;38.53;22.40;;;;;;;35.60;46.95;101266.69;6249052;22;20804;-74
2022/07/10 01:52:40;;;;;;;44.67;23.60;;;;;;;35.50;46.81;101253.28;6276339;22;20380;-75
2022/07/10 01:55:07;;;;;;;39.23;19.73;;;;;;;35.49;47.18;101257.06;6276569;22;20362;-75
2022/07/10 01:57:33;;;;;;;52.70;22.63;;;;;;;35.51;46.96;101253.00;6249035;22;20861;-74
2022/07/10 02:00:00;;;;;;;39.90;21.63;;;;;;;35.65;46.86;101253.16;6248951;22;20477;-74
2022/07/10 02:02:26;;;;;;;41.70;22.87;;;;;;;35.67;47.03;101261.00;6276258;22;20358;-73
2022/07/10 02:04:52;;;;;;;35.10;21.30;;;;;;;35.73;46.68;101262.56;6248944;22;20377;-75
2022/07/10 02:07:21;;;;;;;40.30;21.53;;;;;;;35.73;46.63;101257.97;6276655;22;20405;-75
2022/07/10 02:09:47;;;;;;;39.27;23.47;;;;;;;35.70;46.86;101257.72;6248924;22;20381;-74
2022/07/10 02:12:14;;;;;;;37.33;21.90;;;;;;;35.84;46.35;101252.47;6248780;22;20447;-74
2022/07/10 02:14:42;;;;;;;39.37;20.90;;;;;;;35.84;46.74;101261.38;6248927;22;20400;-73
2022/07/10 02:17:09;;;;;;;39.13;21.30;;;;;;;35.81;46.21;101261.97;6276271;22;20358;-74
2022/07/10 02:19:35;;;;;;;50.17;21.03;;;;;;;35.82;46.26;101258.16;6248928;22;20450;-75
2022/07/10 02:22:02;;;;;;;39.03;24.53;;;;;;;35.90;46.00;101248.66;6248888;22;20380;-75
2022/07/10 02:24:28;;;;;;;49.53;22.90;;;;;;;35.83;46.23;101248.97;6248700;22;20373;-76
2022/07/10 02:26:55;;;;;;;45.17;20.53;;;;;;;35.84;45.90;101237.09;6248792;22;20501;-76
2022/07/10 02:29:23;;;;;;;34.73;21.43;;;;;;;35.91;46.04;101245.72;6248396;22;20412;-74
2022/07/10 02:31:49;;;;;;;36.33;24.27;;;;;;;35.89;46.05;101237.03;6276511;22;20365;-74
2022/07/10 02:34:15;;;;;;;42.60;22.70;;;;;;;35.83;46.25;101235.47;6223611;22;20408;-74
2022/07/10 02:36:41;;;;;;;35.93;21.00;;;;;;;35.88;45.47;101229.25;6248632;22;20370;-75
2022/07/10 02:39:08;;;;;;;44.73;23.17;;;;;;;35.87;45.59;101222.22;6275922;22;20346;-75
2022/07/10 02:41:38;;;;;;;69.90;24.60;;;;;;;35.82;45.77;101212.28;6248628;22;20389;-75
2022/07/10 02:44:04;;;;;;;46.70;25.10;;;;;;;35.85;46.34;101214.44;6248799;22;20459;-75
2022/07/10 02:46:31;;;;;;;38.87;23.57;;;;;;;35.79;46.34;101208.25;6248566;22;20475;-75
2022/07/10 02:48:57;;;;;;;49.20;22.37;;;;;;;35.69;46.69;101202.13;6248678;22;20382;-75
2022/07/10 02:51:23;;;;;;;34.77;22.80;;;;;;;35.58;46.35;101206.81;6248530;22;20494;-75
2022/07/10 02:53:49;;;;;;;39.93;22.80;;;;;;;35.58;46.14;101200.59;6248482;22;20381;-75
2022/07/10 02:56:15;;;;;;;38.80;21.03;;;;;;;35.56;46.43;101200.09;6275963;22;20476;-74
2022/07/10 02:58:42;;;;;;;39.57;22.93;;;;;;;35.70;46.58;101198.34;6248660;22;20377;-74
2022/07/10 03:01:08;;;;;;;39.20;22.70;;;;;;;35.72;46.24;101196.16;6248495;22;20382;-74
2022/07/10 03:03:34;;;;;;;43.20;20.93;;;;;;;35.74;45.97;101202.09;6248628;22;20381;-74
2022/07/10 03:06:01;;;;;;;52.63;24.67;;;;;;;35.74;46.05;101202.91;6276120;22;20369;-74
2022/07/10 03:08:27;;;;;;;47.40;23.97;;;;;;;35.77;46.78;101207.72;6248443;22;20448;-74
2022/07/10 03:10:53;;;;;;;45.30;23.30;;;;;;;35.60;46.87;101207.31;6248462;22;20763;-75
2022/07/10 03:13:19;;;;;;;35.40;20.77;;;;;;;35.58;46.98;101211.41;6248454;22;20381;-74
2022/07/10 03:15:45;;;;;;;40.97;22.37;;;;;;;35.69;46.27;101221.03;6276054;22;20366;-74
2022/07/10 03:18:11;;;;;;;40.10;20.20;;;;;;;35.80;46.52;101225.25;6248216;22;20454;-74
2022/07/10 03:20:37;;;;;;;33.50;22.87;;;;;;;35.68;46.05;101224.81;6248471;22;20384;-74
2022/07/10 03:23:03;;;;;;;35.03;20.30;;;;;;;35.70;46.51;101222.63;6248396;22;20414;-76
2022/07/10 03:25:30;;;;;;;44.23;21.70;;;;;;;35.65;46.35;101231.56;6248259;22;20408;-75
2022/07/10 03:27:56;;;;;;;40.07;22.93;;;;;;;35.70;46.42;101222.63;6276016;22;20409;-74
2022/07/10 03:30:22;;;;;;;32.93;21.17;;;;;;;35.79;46.43;101227.16;6243012;22;20450;-73
2022/07/10 03:32:48;;;;;;;43.97;22.70;;;;;;;35.78;46.17;101236.31;6242706;23;20785;-73
2022/07/10 03:35:14;;;;;;;40.97;21.57;;;;;;;35.80;46.08;101234.16;6242957;23;20382;-74
2022/07/10 03:37:40;;;;;;;37.03;23.23;;;;;;;35.82;46.62;101231.16;6241291;23;20374;-74
2022/07/10 03:40:07;;;;;;;38.13;21.93;;;;;;;35.60;46.68;101237.00;6243535;23;20382;-73
2022/07/10 03:42:33;;;;;;;53.63;27.30;;;;;;;35.70;46.83;101245.03;6243152;23;20382;-73
2022/07/10 03:44:59;;;;;;;49.77;22.70;;;;;;;35.60;46.63;101234.28;6243328;23;20374;-73
2022/07/10 03:47:25;;;;;;;52.10;23.47;;;;;;;35.57;46.77;101239.47;6245272;22;20430;-73
2022/07/10 03:49:52;;;;;;;43.90;22.00;;;;;;;35.61;47.18;101235.13;6242946;23;20381;-74
2022/07/10 03:52:18;;;;;;;35.47;20.27;;;;;;;35.71;46.71;101245.84;6245793;22;20351;-74
2022/07/10 03:54:44;;;;;;;40.67;22.17;;;;;;;35.88;46.01;101250.84;6244894;22;20445;-73
2022/07/10 03:58:10;;;;;;;52.10;25.37;;;;;;;35.83;46.41;101250.88;6242680;23;20425;-73
2022/07/10 04:00:06;;;;;;;55.13;24.83;;;;;;;35.70;46.64;101255.03;6224361;22;20393;-74
2022/07/10 04:02:32;;;;;;;50.23;25.87;;;;;;;35.76;46.39;101251.19;6217588;23;20861;-73
2022/07/10 04:04:58;;;;;;;43.87;22.20;;;;;;;35.76;46.83;101259.28;6243479;23;20866;-73
2022/07/10 04:07:24;;;;;;;54.30;24.33;;;;;;;35.67;46.90;101251.00;6244014;23;20501;-74
2022/07/10 04:09:51;;;;;;;43.43;21.40;;;;;;;35.81;46.50;101251.16;6245065;23;20378;-74
2022/07/10 04:12:17;;;;;;;44.20;22.00;;;;;;;35.68;46.51;101254.50;6244872;23;20370;-74
2022/07/10 04:14:43;;;;;;;37.13;19.90;;;;;;;35.74;46.48;101250.69;6244991;23;20375;-74
2022/07/10 04:17:09;;;;;;;40.93;22.67;;;;;;;35.71;46.91;101240.44;6219762;23;20371;-74
2022/07/10 04:19:35;;;;;;;39.07;24.60;;;;;;;35.69;46.89;101239.91;6244843;23;20374;-73
2022/07/10 04:22:01;;;;;;;47.70;25.13;;;;;;;35.79;46.42;101248.75;6245133;23;20445;-73
2022/07/10 04:24:28;;;;;;;33.20;20.40;;;;;;;35.73;46.50;101243.69;6219507;23;20378;-72
2022/07/10 04:26:54;;;;;;;35.27;21.03;;;;;;;35.81;46.22;101248.47;6244812;23;20489;-73
2022/07/10 04:29:20;;;;;;;44.73;22.33;;;;;;;35.70;46.39;101250.44;6249112;22;20905;-73
2022/07/10 04:31:46;;;;;;;37.83;21.17;;;;;;;35.77;46.36;101255.50;6249800;22;20713;-73
2022/07/10 04:34:13;;;;;;;39.90;21.27;;;;;;;35.57;46.98;101251.06;6277674;22;20373;-73
2022/07/10 04:36:39;;;;;;;49.40;24.27;;;;;;;35.65;46.43;101255.84;6249858;22;20373;-73
2022/07/10 04:39:05;;;;;;;49.63;22.20;;;;;;;35.72;45.98;101253.63;6249729;22;20403;-72
2022/07/10 04:41:31;;;;;;;50.67;23.00;;;;;;;35.75;46.37;101252.28;6249732;22;20378;-73
2022/07/10 04:43:57;;;;;;;46.53;25.37;;;;;;;35.60;46.55;101260.47;6249604;22;20378;-72
2022/07/10 04:46:23;;;;;;;31.73;21.23;;;;;;;35.61;46.38;101254.81;6249593;22;20374;-72
2022/07/10 04:48:50;;;;;;;36.47;20.60;;;;;;;35.68;46.44;101262.59;6277210;22;20358;-72
2022/07/10 04:51:16;;;;;;;38.33;24.00;;;;;;;35.67;46.76;101256.41;6249744;22;20401;-73
2022/07/10 04:53:43;;;;;;;43.70;21.43;;;;;;;35.74;46.99;101256.06;6249765;22;20401;-74
2022/07/10 04:56:09;;;;;;;45.67;21.63;;;;;;;35.65;46.98;101265.84;6249417;22;20464;-73
2022/07/10 04:58:35;;;;;;;46.30;23.37;;;;;;;35.71;46.88;101270.94;6249698;22;20427;-72
2022/07/10 05:01:01;;;;;;;43.63;22.20;;;;;;;35.66;47.03;101275.53;6249074;22;20425;-72
2022/07/10 05:03:31;;;;;;;54.20;24.87;;;;;;;35.80;46.66;101282.75;6249595;22;20779;-73
2022/07/10 05:05:57;;;;;;;43.27;21.30;;;;;;;35.63;46.38;101286.91;6249583;22;20377;-73
2022/07/10 05:08:23;;;;;;;58.20;25.80;;;;;;;35.35;47.47;101285.69;6249228;22;20429;-73
2022/07/10 05:10:49;;;;;;;51.90;24.33;;;;;;;35.41;47.10;101296.16;6249423;22;20464;-73
2022/07/10 05:13:15;;;;;;;41.90;20.90;;;;;;;35.49;46.64;101287.53;6276839;22;20350;-74
2022/07/10 05:15:41;;;;;;;46.53;25.97;;;;;;;35.51;47.11;101287.25;6249348;22;20401;-72
2022/07/10 05:18:07;;;;;;;48.43;22.87;;;;;;;35.26;47.47;101285.47;6249306;22;20388;-72
2022/07/10 05:20:35;;;;;;;52.63;24.27;;;;;;;35.37;47.67;101286.25;6249428;22;20373;-72
2022/07/10 05:23:01;;;;;;;44.87;23.73;;;;;;;35.45;46.53;101294.56;6249353;22;20493;-74
2022/07/10 05:25:30;;;;;;;38.17;23.73;;;;;;;35.52;46.32;101289.66;6249274;22;20374;-74
2022/07/10 05:27:57;;;;;;;38.90;23.70;;;;;;;35.26;47.64;101297.06;6249351;22;20538;-73
2022/07/10 05:30:23;;;;;;;37.00;21.40;;;;;;;35.08;47.82;101303.09;6249192;22;20469;-72
2022/07/10 05:32:49;;;;;;;41.30;21.73;;;;;;;35.26;47.38;101294.38;6249171;22;20393;-72
2022/07/10 05:35:16;;;;;;;49.27;22.87;;;;;;;35.41;47.10;101295.38;6249312;22;20408;-72
2022/07/10 05:37:42;;;;;;;42.20;23.17;;;;;;;35.33;47.08;101296.75;6223918;22;20384;-73
2022/07/10 05:40:09;;;;;;;49.07;23.10;;;;;;;35.35;47.12;101305.38;6276796;22;20354;-73
2022/07/10 05:42:35;;;;;;;47.40;23.57;;;;;;;35.28;46.92;101304.88;6249313;22;20377;-72
2022/07/10 05:45:01;;;;;;;42.87;22.90;;;;;;;35.37;47.19;101297.03;6248693;22;20396;-73
2022/07/10 05:47:28;;;;;;;50.40;25.20;;;;;;;35.33;46.83;101312.94;6249026;22;20424;-73
2022/07/10 05:49:54;;;;;;;44.80;22.87;;;;;;;35.37;47.16;101308.63;6248899;22;20397;-74
2022/07/10 05:52:20;;;;;;;43.23;22.20;;;;;;;35.55;46.88;101318.00;6249064;22;20373;-72
2022/07/10 05:54:46;;;;;;;46.53;23.87;;;;;;;35.39;47.18;101317.22;6250118;22;20366;-72
2022/07/10 05:57:12;;;;;;;41.77;23.00;;;;;;;35.51;46.67;101325.03;6248935;22;20408;-72
2022/07/10 05:59:39;;;;;;;43.53;24.77;;;;;;;35.31;48.07;101323.22;6224050;22;20392;-73
2022/07/10 06:02:05;;;;;;;40.37;22.50;;;;;;;35.35;47.77;101329.66;6276447;22;20366;-74
2022/07/10 06:04:31;;;;;;;45.73;25.87;;;;;;;35.37;47.70;101338.28;6249035;22;20382;-73
2022/07/10 06:06:57;;;;;;;48.03;22.67;;;;;;;35.07;48.18;101338.41;6248941;22;20418;-73
2022/07/10 06:09:23;;;;;;;58.80;25.30;;;;;;;34.80;49.33;101346.78;6249449;22;20361;-72
2022/07/10 06:11:49;;;;;;;54.20;28.10;;;;;;;35.23;48.27;101353.44;6276249;22;20479;-73
2022/07/10 06:14:16;;;;;;;36.43;24.27;;;;;;;34.83;48.91;101357.84;6248716;22;20386;-72
2022/07/10 06:16:42;;;;;;;50.57;26.87;;;;;;;35.20;48.49;101354.00;6248810;22;20461;-74
2022/07/10 06:19:08;;;;;;;48.90;27.63;;;;;;;35.02;48.87;101363.50;6248780;22;20477;-73
2022/07/10 06:21:34;;;;;;;49.80;25.27;;;;;;;35.13;48.55;101364.28;6248727;22;20381;-72
2022/07/10 06:24:00;;;;;;;61.23;30.70;;;;;;;35.23;48.68;101375.00;6276291;22;20389;-73
2022/07/10 06:26:26;;;;;;;52.40;26.93;;;;;;;35.28;48.43;101377.69;6249167;22;20378;-74
2022/07/10 06:28:52;;;;;;;73.40;29.13;;;;;;;35.28;48.20;101383.09;6248741;22;20386;-73
2022/07/10 06:31:19;;;;;;;64.83;30.33;;;;;;;35.41;47.83;101387.91;6243384;23;20434;-74
2022/07/10 06:33:45;;;;;;;50.73;28.83;;;;;;;35.25;48.56;101383.66;6243621;23;20486;-73
2022/07/10 06:36:12;;;;;;;58.33;28.40;;;;;;;35.26;48.28;101393.34;6243748;23;20734;-73
2022/07/10 06:38:38;;;;;;;66.97;29.10;;;;;;;35.22;48.34;101394.97;6245843;22;20437;-72
2022/07/10 06:41:04;;;;;;;53.43;28.30;;;;;;;35.43;47.93;101393.88;6245389;22;20394;-73
2022/07/10 06:43:30;;;;;;;53.47;27.20;;;;;;;35.52;47.99;101391.41;6243608;23;20394;-74
2022/07/10 06:45:57;;;;;;;46.93;26.73;;;;;;;35.48;47.62;101393.03;6245509;22;20413;-74
2022/07/10 06:48:24;;;;;;;54.07;27.50;;;;;;;35.23;48.01;101405.47;6243391;23;20495;-72
2022/07/10 06:50:50;;;;;;;55.77;29.63;;;;;;;35.43;47.68;101396.56;6243559;23;20409;-72
2022/07/10 06:53:16;;;;;;;50.73;28.20;;;;;;;35.12;48.76;101405.81;6243301;23;20406;-72
2022/07/10 06:55:42;;;;;;;55.63;29.60;;;;;;;35.10;48.42;101397.97;6243678;23;20400;-72
2022/07/10 06:58:09;;;;;;;52.13;30.30;;;;;;;35.21;47.97;101396.88;6243424;23;20460;-73
2022/07/10 07:00:35;;;;;;;46.83;25.37;;;;;;;35.19;48.53;101399.03;6243612;23;20390;-73
2022/07/10 07:03:01;;;;;;;60.17;26.87;;;;;;;35.38;48.14;101399.25;6243333;23;20444;-73
2022/07/10 07:05:27;;;;;;;63.90;31.40;;;;;;;35.28;47.72;101391.19;6243434;23;20712;-73
2022/07/10 07:07:53;;;;;;;53.50;31.17;;;;;;;35.21;48.05;101393.38;6243623;23;20433;-73
2022/07/10 07:10:19;;;;;;;56.03;29.27;;;;;;;35.32;48.00;101384.16;6243256;23;20417;-73
2022/07/10 07:12:45;;;;;;;65.43;30.40;;;;;;;35.26;48.18;101396.84;6243482;23;20389;-73
2022/07/10 07:15:12;;;;;;;52.47;26.30;;;;;;;34.79;48.86;101401.78;6243337;23;20413;-73
2022/07/10 07:18:16;;;;;;;46.83;24.80;;;;;;;35.00;49.11;101393.44;6245408;22;20347;-72
2022/07/10 07:23:21;;;;;;;56.37;30.20;;;;;;;35.34;47.88;101417.06;6245048;23;20354;-74
2022/07/10 07:25:47;;;;;;;63.50;29.53;;;;;;;35.17;48.45;101416.56;6244688;23;20382;-73
2022/07/10 07:28:18;;;;;;;57.63;29.03;;;;;;;35.20;48.50;101418.72;6245226;23;20521;-74
2022/07/10 07:30:45;;;;;;;65.43;30.50;;;;;;;35.31;48.40;101425.72;6244370;22;20470;-74
2022/07/10 07:33:12;;;;;;;55.63;26.83;;;;;;;35.33;48.41;101431.63;6245468;23;20370;-74
2022/07/10 07:35:38;;;;;;;52.67;27.70;;;;;;;35.21;48.14;101429.22;6246713;22;20770;-73
2022/07/10 07:38:05;;;;;;;62.20;29.70;;;;;;;35.32;48.23;101440.81;6245414;23;20432;-74
2022/07/10 07:40:32;;;;;;;52.57;28.93;;;;;;;35.25;48.07;101448.38;6245364;23;20708;-74
2022/07/10 07:42:59;;;;;;;46.97;23.87;;;;;;;35.39;48.17;101441.31;6245210;23;20439;-73
2022/07/10 07:45:26;;;;;;;56.07;29.17;;;;;;;35.33;47.90;101445.13;6244993;23;20406;-72
2022/07/10 07:47:57;;;;;;;45.80;25.90;;;;;;;35.24;47.89;101454.88;6245051;23;21090;-75
2022/07/10 07:50:26;;;;;;;47.50;26.57;;;;;;;35.35;47.84;101448.34;6247155;22;20981;-74
2022/07/10 07:52:53;;;;;;;55.13;33.57;;;;;;;35.32;48.03;101464.28;6245223;23;20374;-74
2022/07/10 07:55:20;;;;;;;42.27;24.70;;;;;;;35.14;48.87;101465.66;6246870;22;20424;-74
2022/07/10 07:57:47;;;;;;;46.33;25.67;;;;;;;35.17;48.21;101470.50;6245221;23;20445;-74
2022/07/10 08:00:17;;;;;;;39.80;24.10;;;;;;;35.19;48.26;101471.06;6244899;23;20409;-74
2022/07/10 08:02:44;;;;;;;44.03;23.83;;;;;;;35.25;48.53;101475.34;6245146;23;20382;-72
2022/07/10 08:05:10;;;;;;;42.00;25.97;;;;;;;35.05;48.66;101478.06;6244872;23;20379;-74
2022/07/10 08:07:42;;;;;;;52.20;26.30;;;;;;;35.09;48.53;101487.22;6246758;22;20774;-72
2022/07/10 08:10:11;;;;;;;47.70;27.40;;;;;;;35.20;48.77;101486.16;6244676;23;20398;-72
2022/07/10 08:12:38;;;;;;;48.33;25.23;;;;;;;35.27;48.18;101475.88;6244778;23;20462;-72
2022/07/10 08:15:10;;;;;;;55.23;24.40;;;;;;;35.10;48.57;101469.97;6244460;23;20381;-73
2022/07/10 08:17:37;;;;;;;47.53;25.10;;;;;;;35.18;48.21;101469.44;6246588;22;20347;-72
2022/07/10 08:20:05;;;;;;;50.27;28.40;;;;;;;35.03;48.45;101470.25;6244483;23;20487;-73
2022/07/10 08:22:32;;;;;;;47.47;24.60;;;;;;;34.93;49.19;101454.91;6246524;22;20352;-70
2022/07/10 08:24:59;;;;;;;51.23;28.30;;;;;;;35.00;48.83;101468.91;6244377;23;20367;-72
2022/07/10 08:27:25;;;;;;;50.17;29.70;;;;;;;35.04;48.63;101462.97;6246744;22;20432;-74
2022/07/10 08:29:51;;;;;;;45.13;23.50;;;;;;;35.17;49.20;101462.41;6244224;22;20442;-74
2022/07/10 08:32:18;;;;;;;42.03;26.07;;;;;;;35.26;48.89;101456.19;6246177;22;20362;-73
2022/07/10 08:34:44;;;;;;;43.23;23.20;;;;;;;35.28;48.96;101459.41;6246140;22;20366;-76
2022/07/10 08:37:10;;;;;;;46.07;21.30;;;;;;;35.55;48.10;101449.41;6245855;22;20355;-74
2022/07/10 08:39:37;;;;;;;48.30;23.33;;;;;;;35.72;47.90;101453.38;6244330;23;20379;-73
2022/07/10 08:42:07;;;;;;;36.43;20.80;;;;;;;35.80;48.05;101452.00;6243946;23;20402;-74
2022/07/10 08:44:34;;;;;;;40.70;24.37;;;;;;;35.79;47.88;101456.59;6244420;23;20375;-74
2022/07/10 08:47:01;;;;;;;41.60;25.30;;;;;;;35.77;47.52;101450.66;6241505;23;20426;-73
2022/07/10 08:49:30;;;;;;;37.93;21.70;;;;;;;35.71;47.59;101440.16;6243755;23;20392;-73
2022/07/10 08:52:06;;;;;;;37.57;22.10;;;;;;;35.98;47.28;101456.81;6246501;22;20409;-72
2022/07/10 08:54:33;;;;;;;37.27;23.90;;;;;;;35.83;47.62;101447.94;6246513;22;20386;-73
2022/07/10 08:57:01;;;;;;;39.40;24.27;;;;;;;35.77;48.00;101455.25;6243909;23;20371;-73
2022/07/10 08:59:29;;;;;;;42.87;21.90;;;;;;;35.89;47.62;101461.13;6243231;23;20851;-74
2022/07/10 09:01:56;;;;;;;47.83;22.37;;;;;;;35.75;47.42;101462.81;6243636;23;20378;-73
2022/07/10 09:04:25;;;;;;;35.30;22.57;;;;;;;35.94;47.36;101466.53;6243568;23;20416;-73
2022/07/10 09:06:52;;;;;;;34.67;20.33;;;;;;;35.95;46.75;101462.75;6244395;23;20418;-75
2022/07/10 09:09:19;;;;;;;42.50;23.73;;;;;;;35.61;47.47;101462.59;6243831;23;20721;-74
2022/07/10 09:11:46;;;;;;;37.33;21.70;;;;;;;35.77;47.06;101455.25;6243947;23;20379;-73
2022/07/10 09:14:15;;;;;;;43.67;22.57;;;;;;;35.87;47.35;101460.59;6218941;23;20457;-73
2022/07/10 09:16:45;;;;;;;36.77;21.93;;;;;;;36.02;46.22;101462.44;6243978;23;20381;-73
2022/07/10 09:19:20;;;;;;;47.87;25.10;;;;;;;35.78;47.10;101457.66;6243738;23;20382;-73
2022/07/10 09:21:48;;;;;;;36.33;21.70;;;;;;;35.57;47.38;101463.44;6243880;23;20381;-73
2022/07/10 09:24:19;;;;;;;38.63;22.97;;;;;;;35.34;47.69;101470.19;6219375;23;20791;-73
2022/07/10 09:26:54;;;;;;;42.03;22.00;;;;;;;35.22;48.29;101471.28;6245802;22;20406;-73
2022/07/10 09:29:20;;;;;;;32.10;20.97;;;;;;;35.30;48.22;101467.25;6245401;22;20401;-72
2022/07/10 09:31:53;;;;;;;33.20;20.00;;;;;;;35.61;47.50;101467.19;6248875;22;20471;-72
2022/07/10 09:34:48;;;;;;;37.77;22.50;;;;;;;35.70;47.86;101465.53;6248695;22;20702;-73
2022/07/10 09:37:17;;;;;;;41.03;22.90;;;;;;;35.94;46.87;101463.84;6248932;22;20457;-73
2022/07/10 09:39:55;;;;;;;42.23;25.07;;;;;;;35.61;46.88;101464.50;6248371;22;20730;-75
2022/07/10 09:42:28;;;;;;;57.93;27.33;;;;;;;35.27;48.13;101462.41;6276350;22;20763;-72
2022/07/10 09:45:16;;;;;;;55.30;25.47;;;;;;;35.46;47.65;101454.56;6248446;22;20385;-73
2022/07/10 09:47:55;;;;;;;48.63;27.30;;;;;;;35.69;47.68;101445.84;6248378;22;20924;-74
2022/07/10 09:50:36;;;;;;;45.80;26.67;;;;;;;35.65;47.52;101433.97;6248338;22;20512;-73
2022/07/10 09:53:09;;;;;;;48.30;23.10;;;;;;;35.95;47.53;101441.13;6246515;22;20853;-73
2022/07/10 09:55:36;;;;;;;42.40;24.87;;;;;;;35.80;46.99;101433.91;6248628;22;20950;-74
2022/07/10 09:58:07;;;;;;;46.23;23.70;;;;;;;35.67;47.26;101439.91;6248428;22;20380;-74
2022/07/10 10:00:40;;;;;;;33.33;23.80;;;;;;;35.81;47.47;101421.22;6250197;22;20447;-74
2022/07/10 10:03:13;;;;;;;35.23;20.50;;;;;;;35.70;47.75;101422.34;6272538;22;20411;-73
2022/07/10 10:05:43;;;;;;;39.03;23.40;;;;;;;35.39;48.53;101427.84;6244301;22;20405;-74
2022/07/10 10:08:13;;;;;;;45.63;23.80;;;;;;;35.35;48.50;101426.75;6248132;22;20445;-74
2022/07/10 10:10:59;;;;;;;33.10;20.73;;;;;;;35.61;47.74;101421.31;6248764;22;20382;-72
2022/07/10 10:13:27;;;;;;;50.53;25.30;;;;;;;35.74;47.69;101415.31;6248383;22;20435;-73
2022/07/10 10:15:55;;;;;;;40.70;21.53;;;;;;;35.63;47.45;101414.56;6248724;22;20823;-73
2022/07/10 10:18:23;;;;;;;39.93;24.80;;;;;;;35.59;47.49;101409.97;6248814;22;20434;-72
2022/07/10 10:20:51;;;;;;;35.63;20.47;;;;;;;35.61;47.58;101402.44;6248581;22;20405;-73
2022/07/10 10:23:22;;;;;;;39.20;21.60;;;;;;;35.85;47.11;101400.69;6247173;22;20775;-75
2022/07/10 10:25:51;;;;;;;50.20;23.20;;;;;;;36.11;46.80;101406.75;6247511;22;20385;-75
2022/07/10 10:28:23;;;;;;;39.83;21.37;;;;;;;36.13;46.74;101403.78;6246824;22;20456;-75
2022/07/10 10:30:53;;;;;;;37.47;23.23;;;;;;;35.87;47.22;101411.19;6242526;22;20445;-74
2022/07/10 10:33:37;;;;;;;42.23;21.07;;;;;;;35.36;47.95;101412.22;6243470;23;20460;-74
2022/07/10 10:36:05;;;;;;;43.33;22.43;;;;;;;35.75;47.77;101398.84;6237389;23;20429;-73
2022/07/10 10:38:51;;;;;;;47.33;23.50;;;;;;;35.90;47.29;101397.94;6241601;23;20413;-72
2022/07/10 10:41:37;;;;;;;38.57;18.93;;;;;;;35.57;47.60;101410.25;6243512;23;20394;-72
2022/07/10 10:44:13;;;;;;;38.47;23.60;;;;;;;35.68;46.85;101392.13;6239428;23;20421;-74
2022/07/10 10:46:56;;;;;;;38.77;21.50;;;;;;;35.78;47.06;101386.66;6243483;23;20382;-74
2022/07/10 10:49:27;;;;;;;32.27;22.17;;;;;;;35.88;47.25;101380.41;6243225;23;20407;-74
2022/07/10 10:52:07;;;;;;;43.07;23.90;;;;;;;36.04;46.87;101390.88;6243395;23;20382;-74
2022/07/10 10:55:08;;;;;;;31.97;21.97;;;;;;;35.91;45.71;101369.91;6243470;23;20782;-74
2022/07/10 10:57:36;;;;;;;33.50;19.57;;;;;;;35.99;46.25;101372.00;6212305;23;20426;-72
2022/07/10 11:00:08;;;;;;;34.27;17.87;;;;;;;36.10;46.79;101371.94;6232111;23;20385;-75
2022/07/10 11:02:37;;;;;;;36.00;23.83;;;;;;;35.76;47.66;101364.56;6242794;23;20483;-75
2022/07/10 11:05:19;;;;;;;44.20;24.37;;;;;;;35.62;47.39;101361.66;6245467;23;20389;-73
2022/07/10 11:07:57;;;;;;;58.77;26.00;;;;;;;35.79;47.56;101361.31;6245405;23;20432;-73
2022/07/10 11:10:43;;;;;;;38.87;25.13;;;;;;;35.84;46.45;101363.16;6244695;22;20357;-73
2022/07/10 11:13:14;;;;;;;45.13;27.20;;;;;;;36.11;46.96;101365.44;6245377;23;20378;-73
2022/07/10 11:15:42;;;;;;;52.43;27.70;;;;;;;35.80;47.02;101358.34;6245311;23;20378;-73